Time;durP1;ratioP1;P1;durP2;ratioP2;P2;SDS_P1;SDS_P2;PMS_P1;PMS_P2;Temp;Humidity;BMP_temperature;BMP_pressure;BME280_temperature;BME280_humidity;BME280_pressure;Samples;Min_cycle;Max_cycle;Signal;HPM_P1;HPM_P2
2022/06/01 00:01:03;;;;;;;;;3.00;3.00;;;;;15.84;46.05;101220.75;5062293;28;45231;-60
2022/06/01 00:03:32;;;;;;;;;3.50;3.00;;;;;15.77;46.05;101220.13;5062360;28;46059;-60
2022/06/01 00:05:57;;;;;;;;;3.00;3.00;;;;;15.72;46.35;101216.84;5062135;28;45753;-60
2022/06/01 00:08:23;;;;;;;;;3.00;3.00;;;;;15.69;46.22;101217.81;5062666;28;45367;-61
2022/06/01 00:10:50;;;;;;;;;3.50;3.00;;;;;15.68;46.30;101216.13;5094875;27;45464;-61
2022/06/01 00:13:16;;;;;;;;;2.00;2.00;;;;;15.66;46.20;101220.56;5053631;28;46202;-61
2022/06/01 00:15:42;;;;;;;;;4.75;4.25;;;;;15.68;46.22;101226.59;5058611;28;45296;-62
2022/06/01 00:18:08;;;;;;;;;3.00;3.00;;;;;15.66;46.31;101231.06;5095413;27;45422;-62
2022/06/01 00:20:35;;;;;;;;;3.50;3.50;;;;;15.65;46.47;101233.75;5062043;28;45405;-60
2022/06/01 00:23:00;;;;;;;;;5.25;3.25;;;;;15.62;46.52;101228.63;5062292;28;46094;-60
2022/06/01 00:25:26;;;;;;;;;2.25;2.25;;;;;15.63;46.28;101227.72;5061979;28;45343;-60
2022/06/01 00:27:51;;;;;;;;;2.50;2.25;;;;;15.63;46.96;101235.56;5061959;28;45509;-60
2022/06/01 00:30:17;;;;;;;;;3.00;3.00;;;;;15.55;47.21;101230.59;5061998;28;45403;-60
2022/06/01 00:32:43;;;;;;;;;3.00;3.00;;;;;15.52;47.50;101231.56;5059521;28;47102;-59
2022/06/01 00:35:12;;;;;;;;;4.00;2.00;;;;;15.48;47.05;101234.38;5061640;28;45336;-59
2022/06/01 00:37:38;;;;;;;;;3.00;3.00;;;;;15.41;48.32;101233.75;5062269;28;45303;-60
2022/06/01 00:40:06;;;;;;;;;3.00;3.00;;;;;15.38;47.78;101233.88;5061898;28;45325;-59
2022/06/01 00:42:34;;;;;;;;;2.00;2.00;;;;;15.37;48.38;101228.72;5061518;28;46312;-59
2022/06/01 00:44:59;;;;;;;;;3.00;3.00;;;;;15.31;48.01;101224.56;5094187;27;45335;-59
2022/06/01 00:47:26;;;;;;;;;3.75;2.75;;;;;15.34;48.14;101239.31;5061884;28;45432;-60
2022/06/01 00:50:05;;;;;;;;;4.00;3.00;;;;;15.31;48.07;101228.97;5060496;28;45608;-60
2022/06/01 00:52:35;;;;;;;;;4.00;3.00;;;;;15.31;48.12;101234.19;5060477;28;45549;-59
2022/06/01 00:55:05;;;;;;;;;2.25;2.25;;;;;15.27;48.57;101228.22;5059526;28;46201;-60
2022/06/01 00:57:32;;;;;;;;;2.00;2.00;;;;;15.25;48.14;101219.59;5061099;28;45368;-59
2022/06/01 01:00:00;;;;;;;;;2.75;2.00;;;;;15.28;47.89;101222.06;5059784;28;45427;-61
2022/06/01 01:02:25;;;;;;;;;3.00;2.75;;;;;15.29;48.14;101230.78;5060552;28;46513;-61
2022/06/01 01:04:50;;;;;;;;;3.50;2.50;;;;;15.30;48.01;101227.25;5059289;28;45387;-61
2022/06/01 01:07:17;;;;;;;;;3.75;3.75;;;;;15.30;48.39;101222.88;5061879;28;45254;-61
2022/06/01 01:09:42;;;;;;;;;4.00;4.00;;;;;15.33;48.28;101229.75;5061710;28;45469;-61
2022/06/01 01:12:10;;;;;;;;;5.25;3.25;;;;;15.30;48.10;101233.34;5061183;28;46429;-60
2022/06/01 01:14:40;;;;;;;;;3.00;3.00;;;;;15.30;48.80;101228.09;5047190;28;45379;-61
2022/06/01 01:17:06;;;;;;;;;4.00;4.00;;;;;15.28;48.57;101224.69;5059115;28;45494;-60
2022/06/01 01:19:33;;;;;;;;;5.25;5.00;;;;;15.26;48.27;101220.44;5058818;28;45758;-62
2022/06/01 01:21:59;;;;;;;;;3.25;2.75;;;;;15.26;48.63;101229.13;5058968;28;45807;-61
2022/06/01 01:24:39;;;;;;;;;6.00;4.00;;;;;15.24;48.88;101222.25;5058700;28;45486;-61
2022/06/01 01:27:05;;;;;;;;;4.50;4.00;;;;;15.18;48.91;101228.56;5058522;28;45329;-61
2022/06/01 01:29:35;;;;;;;;;4.25;4.00;;;;;15.16;49.19;101214.69;5059091;28;45347;-61
2022/06/01 01:32:01;;;;;;;;;4.25;4.25;;;;;15.15;49.39;101219.06;5061061;28;45357;-60
2022/06/01 01:34:28;;;;;;;;;4.75;4.00;;;;;15.11;49.92;101212.25;5061276;28;45302;-60
2022/06/01 01:36:57;;;;;;;;;5.50;4.00;;;;;15.09;49.69;101218.47;5060515;28;45334;-61
2022/06/01 01:39:25;;;;;;;;;7.00;4.50;;;;;15.04;49.69;101223.03;5050365;28;45313;-61
2022/06/01 01:41:53;;;;;;;;;4.00;3.00;;;;;15.01;50.17;101217.88;5060483;28;45515;-60
2022/06/01 01:44:37;;;;;;;;;6.25;6.25;;;;;14.98;50.24;101225.84;5060419;28;45397;-60
2022/06/01 01:47:03;;;;;;;;;5.75;4.75;;;;;14.93;50.49;101223.44;5060858;28;45264;-60
2022/06/01 01:49:32;;;;;;;;;5.25;4.50;;;;;14.91;50.74;101226.09;5060693;28;45426;-61
2022/06/01 01:52:00;;;;;;;;;6.00;5.00;;;;;14.88;50.84;101230.59;5060444;28;46460;-61
2022/06/01 01:54:32;;;;;;;;;4.00;4.00;;;;;14.85;50.81;101234.19;5059514;28;45572;-61
2022/06/01 01:57:12;;;;;;;;;4.00;4.00;;;;;14.83;51.23;101222.09;5048027;28;45481;-61
2022/06/01 01:59:52;;;;;;;;;4.50;4.00;;;;;14.80;51.28;101228.25;5060796;28;45457;-61
2022/06/01 02:02:33;;;;;;;;;4.00;3.75;;;;;14.75;51.29;101222.34;5060494;28;46323;-60
2022/06/01 02:08:25;;;;;;;;;6.00;3.50;;;;;14.77;51.53;101217.91;5060647;28;45280;-61
2022/06/01 02:13:45;;;;;;;;;4.75;4.75;;;;;14.72;51.52;101205.91;5060128;28;45835;-61
2022/06/01 02:16:10;;;;;;;;;4.75;2.75;;;;;14.70;51.84;101205.97;5060236;28;45745;-60
2022/06/01 02:18:41;;;;;;;;;7.50;6.00;;;;;14.66;52.25;101204.38;5060740;28;45320;-61
2022/06/01 02:21:14;;;;;;;;;4.25;4.25;;;;;14.63;52.15;101199.28;5059957;28;45274;-61
2022/06/01 02:23:39;;;;;;;;;3.75;3.00;;;;;14.61;52.48;101201.06;5060421;28;45502;-61
2022/06/01 02:26:06;;;;;;;;;7.25;6.50;;;;;14.58;52.43;101198.56;5060143;28;45285;-61
2022/06/01 02:28:32;;;;;;;;;5.00;4.00;;;;;14.59;52.48;101200.28;5060148;28;45375;-61
2022/06/01 02:31:00;;;;;;;;;5.50;5.50;;;;;14.58;52.57;101195.94;5060224;28;45446;-61
2022/06/01 02:33:33;;;;;;;;;4.25;3.00;;;;;14.57;52.80;101199.47;5060049;28;46358;-61
2022/06/01 02:36:02;;;;;;;;;5.00;5.00;;;;;14.54;52.54;101191.75;5060173;28;45182;-61
2022/06/01 02:38:36;;;;;;;;;4.50;4.50;;;;;14.52;52.95;101190.94;5060144;28;45236;-61
2022/06/01 02:41:02;;;;;;;;;6.25;6.25;;;;;14.51;52.81;101195.31;5060224;28;45234;-61
2022/06/01 02:43:28;;;;;;;;;5.25;5.00;;;;;14.50;53.39;101205.84;5059651;28;46625;-61
2022/06/01 02:45:53;;;;;;;;;5.75;4.25;;;;;14.48;53.34;101200.69;5059903;28;45236;-61
2022/06/01 02:48:19;;;;;;;;;7.25;7.25;;;;;14.48;53.46;101199.81;5059884;28;45292;-60
2022/06/01 02:50:45;;;;;;;;;7.50;7.50;;;;;14.45;53.52;101194.72;5059653;28;45593;-60
2022/06/01 02:53:10;;;;;;;;;7.75;5.50;;;;;14.43;54.03;101196.50;5059709;28;45356;-61
2022/06/01 02:55:36;;;;;;;;;7.75;6.00;;;;;14.36;53.84;101188.00;5059308;28;45295;-60
2022/06/01 02:58:02;;;;;;;;;7.75;6.25;;;;;14.39;54.10;101197.50;5059132;28;45340;-60
2022/06/01 03:00:40;;;;;;;;;9.50;7.75;;;;;14.30;54.01;101186.47;5059877;28;45296;-60
2022/06/01 03:03:08;;;;;;;;;5.75;5.75;;;;;14.35;54.55;101185.44;5059497;28;46921;-60
2022/06/01 03:05:37;;;;;;;;;6.75;6.00;;;;;14.30;54.22;101189.09;5059569;28;45456;-60
2022/06/01 03:08:03;;;;;;;;;5.75;5.00;;;;;14.29;54.71;101191.75;5059595;28;45345;-62
2022/06/01 03:10:28;;;;;;;;;9.75;8.25;;;;;14.25;54.82;101184.94;5059602;28;45307;-61
2022/06/01 03:12:55;;;;;;;;;8.75;8.75;;;;;14.25;54.87;101182.31;5059283;28;45594;-61
2022/06/01 03:15:22;;;;;;;;;12.25;9.25;;;;;14.19;54.96;101183.38;5059625;28;45523;-61
2022/06/01 03:17:48;;;;;;;;;10.00;9.50;;;;;14.17;55.28;101184.34;5059832;28;45410;-61
2022/06/01 03:20:19;;;;;;;;;7.00;7.00;;;;;14.14;54.95;101187.06;5057101;28;45559;-60
2022/06/01 03:22:45;;;;;;;;;8.75;7.25;;;;;14.09;54.91;101202.91;5059355;28;45249;-60
2022/06/01 03:25:15;;;;;;;;;11.50;11.00;;;;;14.03;55.56;101203.13;5059502;28;45379;-60
2022/06/01 03:27:41;;;;;;;;;10.25;10.00;;;;;13.99;55.81;101204.13;5059120;28;45263;-60
2022/06/01 03:30:11;;;;;;;;;12.00;11.00;;;;;13.96;55.38;101199.00;5059482;28;45344;-60
2022/06/01 03:32:37;;;;;;;;;10.75;10.75;;;;;13.95;55.67;101200.75;5059163;28;47203;-60
2022/06/01 03:35:04;;;;;;;;;12.75;10.75;;;;;13.95;55.37;101192.91;5058715;28;45765;-60
2022/06/01 03:37:31;;;;;;;;;11.50;10.25;;;;;13.94;55.64;101206.03;5059336;28;45386;-60
2022/06/01 03:39:56;;;;;;;;;15.25;11.25;;;;;13.92;55.52;101198.25;5058854;28;45501;-60
2022/06/01 03:42:22;;;;;;;;;14.00;11.75;;;;;13.88;55.84;101193.19;5058576;28;45661;-60
2022/06/01 03:47:32;;;;;;;;;11.50;9.75;;;;;13.92;55.97;101202.63;5059283;28;45510;-60
2022/06/01 03:49:58;;;;;;;;;11.00;9.50;;;;;13.93;55.79;101210.41;5058679;28;45316;-60
2022/06/01 03:52:23;;;;;;;;;10.50;10.50;;;;;13.94;55.95;101211.25;5059143;28;46190;-60
2022/06/01 03:54:48;;;;;;;;;13.50;11.00;;;;;13.94;56.09;101211.25;5058925;28;45295;-60
2022/06/01 03:57:14;;;;;;;;;12.00;9.00;;;;;13.92;56.12;101211.31;5059106;28;46490;-60
2022/06/01 03:59:39;;;;;;;;;10.00;9.00;;;;;13.90;55.60;101220.13;5058815;28;45161;-60
2022/06/01 04:02:06;;;;;;;;;10.00;8.75;;;;;13.93;56.27;101220.84;5059031;28;45271;-59
2022/06/01 04:04:32;;;;;;;;;10.00;10.00;;;;;13.92;55.95;101218.31;5058680;28;46595;-60
2022/06/01 04:06:58;;;;;;;;;12.75;11.75;;;;;13.92;55.91;101227.00;5059254;28;45302;-60
2022/06/01 04:09:24;;;;;;;;;12.00;9.00;;;;;13.96;55.99;101223.38;5062252;28;45231;-59
2022/06/01 04:11:51;;;;;;;;;12.25;11.75;;;;;13.99;55.93;101233.72;5061857;28;46065;-59
2022/06/01 04:14:18;;;;;;;;;15.00;11.50;;;;;13.99;55.95;101231.09;5062075;28;45419;-60
2022/06/01 04:16:43;;;;;;;;;17.75;11.50;;;;;14.02;56.03;101231.94;5062376;28;45307;-59
2022/06/01 04:19:09;;;;;;;;;10.00;10.00;;;;;14.05;56.47;101232.66;5061767;28;45252;-59
2022/06/01 04:21:38;;;;;;;;;16.25;14.75;;;;;14.04;56.25;101228.34;5062100;28;45321;-60
2022/06/01 04:24:05;;;;;;;;;18.00;11.25;;;;;14.00;57.65;101234.56;5061858;28;45834;-59
2022/06/01 04:26:31;;;;;;;;;11.50;10.50;;;;;13.98;56.66;101234.63;5061912;28;45223;-60
2022/06/01 04:28:56;;;;;;;;;12.50;10.50;;;;;13.92;57.79;101233.97;5061735;28;45457;-60
2022/06/01 04:31:22;;;;;;;;;15.25;13.50;;;;;13.97;56.81;101242.50;5061717;28;45418;-60
2022/06/01 04:33:47;;;;;;;;;14.25;8.00;;;;;13.96;58.84;101246.88;5061729;28;45360;-60
2022/06/01 04:36:12;;;;;;;;;12.00;10.25;;;;;13.92;58.05;101241.81;5061773;28;45279;-60
2022/06/01 04:38:38;;;;;;;;;13.00;11.00;;;;;13.92;57.75;101247.03;5061841;28;45349;-60
2022/06/01 04:41:03;;;;;;;;;11.50;10.00;;;;;13.88;57.74;101238.47;5094490;27;48279;-60
2022/06/01 04:43:29;;;;;;;;;12.50;12.00;;;;;13.94;57.85;101246.09;5061266;28;45283;-60
2022/06/01 04:45:56;;;;;;;;;14.25;12.00;;;;;13.94;58.26;101253.91;5061617;28;45450;-60
2022/06/01 04:48:23;;;;;;;;;12.25;12.00;;;;;13.91;58.59;101250.56;5061483;28;45243;-60
2022/06/01 04:50:49;;;;;;;;;13.75;13.00;;;;;13.89;58.67;101250.63;5061531;28;45394;-60
2022/06/01 04:53:16;;;;;;;;;13.00;12.00;;;;;13.90;60.09;101256.69;5061426;28;45340;-60
2022/06/01 04:55:43;;;;;;;;;14.50;11.25;;;;;13.92;59.00;101255.75;5061744;28;45418;-60
2022/06/01 04:58:09;;;;;;;;;14.50;12.25;;;;;14.02;59.01;101258.91;5059928;28;45417;-59
2022/06/01 05:00:36;;;;;;;;;15.75;13.00;;;;;14.05;59.01;101273.63;5061235;28;46449;-60
2022/06/01 05:03:02;;;;;;;;;15.50;14.00;;;;;14.08;58.63;101276.13;5061289;28;45260;-60
2022/06/01 05:05:27;;;;;;;;;11.75;11.75;;;;;14.13;58.23;101280.31;5061498;28;45304;-60
2022/06/01 05:07:53;;;;;;;;;11.00;10.50;;;;;14.22;58.66;101272.16;5061239;28;45217;-60
2022/06/01 05:10:21;;;;;;;;;16.75;14.00;;;;;14.29;57.95;101273.66;5059676;28;48169;-60
2022/06/01 05:12:46;;;;;;;;;15.50;10.25;;;;;14.37;58.00;101280.38;5060720;28;45759;-60
2022/06/01 05:15:12;;;;;;;;;14.00;11.25;;;;;14.38;57.76;101272.47;5061374;28;45337;-60
2022/06/01 05:17:37;;;;;;;;;14.50;12.50;;;;;14.40;58.50;101281.09;5060926;28;45532;-60
2022/06/01 05:20:04;;;;;;;;;11.00;11.00;;;;;14.36;58.46;101284.75;5059717;28;46738;-60
2022/06/01 05:22:29;;;;;;;;;14.00;11.75;;;;;14.39;58.60;101281.16;5060817;28;45272;-60
2022/06/01 05:24:54;;;;;;;;;37.00;33.00;;;;;14.42;58.17;101278.47;5060830;28;45253;-60
2022/06/01 05:27:20;;;;;;;;;14.25;12.25;;;;;14.48;58.91;101278.28;5046983;28;45518;-61
2022/06/01 05:29:46;;;;;;;;;15.00;12.00;;;;;14.51;58.13;101279.03;5060761;28;45330;-60
2022/06/01 05:32:12;;;;;;;;;20.50;13.25;;;;;14.56;57.89;101282.31;5060655;28;45203;-60
2022/06/01 05:34:37;;;;;;;;;22.00;21.50;;;;;14.65;57.68;101280.31;5060509;28;45326;-60
2022/06/01 05:37:03;;;;;;;;;14.00;11.25;;;;;14.69;57.75;101277.53;5060257;28;45259;-61
2022/06/01 05:39:29;;;;;;;;;8.25;8.25;;;;;14.78;57.92;101278.94;5060275;28;45292;-61
2022/06/01 05:41:54;;;;;;;;;8.25;8.00;;;;;14.85;57.34;101280.44;5058574;28;45834;-61
2022/06/01 05:44:20;;;;;;;;;11.00;10.50;;;;;14.91;56.96;101274.97;5060531;28;45311;-61
2022/06/01 05:46:45;;;;;;;;;12.00;10.00;;;;;14.96;57.16;101272.19;5056797;28;45521;-61
2022/06/01 05:49:13;;;;;;;;;8.50;6.75;;;;;15.00;56.78;101274.63;5055477;28;46650;-61
2022/06/01 05:51:38;;;;;;;;;9.75;7.75;;;;;15.04;56.70;101265.78;5060190;28;45708;-61
2022/06/01 05:54:04;;;;;;;;;10.75;9.00;;;;;15.13;56.56;101270.63;5060490;28;45316;-61
2022/06/01 05:56:29;;;;;;;;;13.00;10.50;;;;;15.20;56.58;101268.63;5060002;28;45212;-61
2022/06/01 05:58:55;;;;;;;;;12.75;8.25;;;;;15.29;56.22;101276.16;5060388;28;45279;-61
2022/06/01 06:01:23;;;;;;;;;9.50;7.50;;;;;15.34;56.60;101270.72;5060048;28;45189;-62
2022/06/01 06:03:49;;;;;;;;;10.00;10.00;;;;;15.34;55.81;101279.44;5060524;28;45280;-61
2022/06/01 06:06:15;;;;;;;;;15.50;9.00;;;;;15.40;56.33;101286.19;5087421;27;45303;-61
2022/06/01 06:09:07;;;;;;;;;8.50;7.25;;;;;15.44;55.79;101287.81;5051921;28;45488;-61
2022/06/01 06:11:37;;;;;;;;;10.75;7.25;;;;;15.46;55.83;101284.22;5053090;28;46009;-61
2022/06/01 06:14:04;;;;;;;;;9.50;7.00;;;;;15.56;55.41;101283.84;5055976;28;45469;-61
2022/06/01 06:16:36;;;;;;;;;11.25;6.00;;;;;15.69;55.26;101282.50;5060291;28;45466;-61
2022/06/01 06:19:03;;;;;;;;;8.00;7.25;;;;;15.80;55.04;101293.38;5059819;28;45413;-61
2022/06/01 06:21:30;;;;;;;;;8.50;8.50;;;;;15.84;54.59;101271.38;5060043;28;45993;-61
2022/06/01 06:24:00;;;;;;;;;7.00;5.50;;;;;15.93;54.64;101275.38;5060175;28;45315;-61
2022/06/01 06:26:25;;;;;;;;;8.25;7.00;;;;;16.00;54.20;101282.06;5059426;28;45463;-61
2022/06/01 06:28:51;;;;;;;;;8.00;6.00;;;;;16.04;53.91;101281.06;5059255;28;45323;-61
2022/06/01 06:31:16;;;;;;;;;5.00;5.00;;;;;16.07;53.27;101278.31;5059724;28;45377;-61
2022/06/01 06:33:41;;;;;;;;;7.75;6.00;;;;;16.15;53.35;101289.31;5059976;28;45437;-61
2022/06/01 06:36:08;;;;;;;;;8.50;7.00;;;;;16.26;52.67;101286.25;5059682;28;45291;-60
2022/06/01 06:38:36;;;;;;;;;9.00;7.75;;;;;16.36;52.48;101290.19;5059440;28;46394;-61
2022/06/01 06:41:03;;;;;;;;;7.50;6.25;;;;;16.34;50.67;101282.38;5059815;28;45151;-61
2022/06/01 06:43:30;;;;;;;;;5.25;4.00;;;;;16.40;50.67;101276.00;5059122;28;45178;-61
2022/06/01 06:45:59;;;;;;;;;7.50;3.25;;;;;16.45;49.51;101287.19;5057917;28;45406;-61
2022/06/01 06:48:24;;;;;;;;;5.25;5.25;;;;;16.52;49.65;101287.75;5059587;28;46401;-61
2022/06/01 06:50:51;;;;;;;;;7.75;5.75;;;;;16.61;49.58;101290.81;5058883;28;45247;-61
2022/06/01 06:53:17;;;;;;;;;4.75;4.00;;;;;16.75;49.53;101292.03;5059034;28;45322;-61
2022/06/01 06:55:42;;;;;;;;;14.00;6.75;;;;;16.81;49.38;101291.75;5059145;28;45503;-61
2022/06/01 06:58:09;;;;;;;;;7.00;6.00;;;;;16.89;49.16;101294.91;5058702;28;45413;-62
2022/06/01 07:00:36;;;;;;;;;7.25;7.00;;;;;16.93;48.97;101297.31;5059083;28;45790;-62
2022/06/01 07:03:02;;;;;;;;;6.50;3.00;;;;;16.91;49.18;101293.06;5059443;28;45334;-61
2022/06/01 07:08:11;;;;;;;;;6.25;5.25;;;;;16.88;48.98;101301.91;5059278;28;45776;-60
2022/06/01 07:10:36;;;;;;;;;8.00;6.75;;;;;16.92;49.00;101310.50;5055861;28;45278;-60
2022/06/01 07:13:02;;;;;;;;;6.75;6.00;;;;;16.91;48.37;101300.94;5058333;28;45342;-60
2022/06/01 07:15:27;;;;;;;;;5.25;4.25;;;;;16.91;48.75;101306.19;5059258;28;45256;-61
2022/06/01 07:17:52;;;;;;;;;10.75;7.25;;;;;16.97;49.16;101309.38;5046532;28;45463;-61
2022/06/01 07:20:18;;;;;;;;;4.75;4.75;;;;;17.12;48.85;101309.59;5059292;28;45329;-61
2022/06/01 07:22:44;;;;;;;;;7.75;6.00;;;;;17.21;48.48;101302.16;5058366;28;45321;-61
2022/06/01 07:25:10;;;;;;;;;11.00;8.00;;;;;17.22;49.01;101297.75;5059207;28;45580;-61
2022/06/01 07:27:36;;;;;;;;;7.50;6.00;;;;;17.32;48.77;101296.41;5058574;28;45509;-60
2022/06/01 07:30:03;;;;;;;;;5.50;5.50;;;;;17.43;48.61;101302.03;5058962;28;45248;-60
2022/06/01 07:32:29;;;;;;;;;3.75;3.75;;;;;17.51;47.94;101304.28;5059082;28;45434;-61
2022/06/01 07:34:54;;;;;;;;;6.25;5.00;;;;;17.48;48.12;101299.19;5059052;28;45485;-61
2022/06/01 07:43:06;;;;;;;;;7.75;6.00;;;;;17.86;47.78;101300.00;5059805;28;45280;-60
2022/06/01 07:45:39;;;;;;;;;7.50;7.00;;;;;18.01;47.63;101298.38;5062603;28;45493;-60
2022/06/01 07:48:07;;;;;;;;;6.00;6.00;;;;;18.06;47.33;101302.50;5070424;28;45612;-61
2022/06/01 07:50:33;;;;;;;;;6.75;6.00;;;;;18.10;47.19;101308.47;5066555;28;45554;-61
2022/06/01 07:52:59;;;;;;;;;3.75;3.75;;;;;18.11;46.96;101310.16;5073655;28;45312;-61
2022/06/01 07:55:26;;;;;;;;;4.75;4.50;;;;;18.15;46.55;101309.06;5062422;28;45362;-61
2022/06/01 07:57:51;;;;;;;;;6.00;6.00;;;;;18.12;46.74;101304.81;5064860;28;46364;-62
2022/06/01 08:00:17;;;;;;;;;9.50;6.25;;;;;18.21;46.92;101311.38;5061963;28;45330;-61
2022/06/01 08:02:43;;;;;;;;;8.75;6.75;;;;;18.32;46.96;101295.06;5060074;28;45531;-61
2022/06/01 08:05:10;;;;;;;;;5.75;5.50;;;;;18.37;46.30;101309.69;5052388;28;45306;-61
2022/06/01 08:07:35;;;;;;;;;7.00;5.50;;;;;18.42;46.38;101306.81;5058791;28;45378;-61
2022/06/01 08:10:03;;;;;;;;;7.00;6.00;;;;;18.48;46.55;101309.16;5054090;28;45311;-62
2022/06/01 08:15:12;;;;;;;;;9.50;7.00;;;;;18.65;45.37;101301.28;5058014;28;45287;-64
2022/06/01 08:17:38;;;;;;;;;7.00;4.50;;;;;18.70;45.51;101301.03;5060593;28;46414;-65
2022/06/01 08:20:04;;;;;;;;;6.50;6.00;;;;;18.77;45.64;101305.88;5057891;28;45256;-62
2022/06/01 08:22:30;;;;;;;;;7.00;6.25;;;;;18.82;45.54;101301.25;5057566;28;47107;-64
2022/06/01 08:24:55;;;;;;;;;6.00;6.00;;;;;18.93;45.56;101303.28;5058917;28;45311;-63
2022/06/01 08:27:21;;;;;;;;;6.00;6.00;;;;;18.95;44.85;101298.78;5055363;28;45441;-67
2022/06/01 08:29:46;;;;;;;;;8.00;8.00;;;;;19.00;44.65;101307.28;5056396;28;45462;-67
2022/06/01 08:32:12;;;;;;;;;8.00;5.50;;;;;19.04;45.26;101302.75;5055289;28;45410;-64
2022/06/01 08:34:38;;;;;;;;;7.25;5.00;;;;;19.17;44.90;101301.13;5058761;28;45314;-66
2022/06/01 08:37:05;;;;;;;;;7.50;6.00;;;;;19.14;44.75;101309.19;5059517;28;47411;-66
2022/06/01 08:39:30;;;;;;;;;5.50;5.50;;;;;19.12;44.21;101306.66;5061275;28;45275;-65
2022/06/01 08:41:58;;;;;;;;;8.25;6.00;;;;;19.12;44.45;101304.00;5061458;28;45232;-65
2022/06/01 08:44:26;;;;;;;;;6.25;5.00;;;;;19.18;44.25;101302.81;5061386;28;45395;-63
2022/06/01 08:47:03;;;;;;;;;6.25;5.00;;;;;19.28;44.58;101295.28;5061278;28;45418;-66
2022/06/01 08:49:33;;;;;;;;;5.50;3.00;;;;;19.35;42.86;101296.63;5061664;28;45433;-65
2022/06/01 08:51:59;;;;;;;;;5.00;4.75;;;;;19.33;43.50;101304.63;5061378;28;45329;-64
2022/06/01 08:54:25;;;;;;;;;4.00;3.00;;;;;19.37;43.34;101300.88;5059079;28;45450;-64
2022/06/01 08:56:55;;;;;;;;;5.75;5.25;;;;;19.29;43.11;101292.56;5054402;28;46153;-62
2022/06/01 08:59:58;;;;;;;;;4.00;3.00;;;;;19.22;43.23;101295.59;5057319;28;45742;-63
2022/06/01 09:02:51;;;;;;;;;15.75;12.75;;;;;19.23;43.62;101294.69;5054680;28;45277;-62
2022/06/01 09:05:31;;;;;;;;;6.50;4.50;;;;;19.35;43.45;101299.28;5054421;28;45434;-64
2022/06/01 09:07:56;;;;;;;;;17.75;16.25;;;;;19.47;43.63;101293.34;5060760;28;45519;-70
2022/06/01 09:10:59;;;;;;;;;12.75;12.50;;;;;19.67;42.51;101303.63;5060104;28;45331;-63
2022/06/01 09:13:33;;;;;;;;;7.00;6.25;;;;;19.76;42.55;101302.25;5052176;28;45435;-66
2022/06/01 09:16:02;;;;;;;;;10.50;9.25;;;;;19.80;42.26;101308.19;5061331;28;45299;-65
2022/06/01 09:18:32;;;;;;;;;6.00;4.25;;;;;19.86;41.62;101308.72;5061038;28;45422;-65
2022/06/01 09:23:43;;;;;;;;;10.00;8.00;;;;;20.02;42.39;101311.31;5061409;28;45410;-64
2022/06/01 09:26:23;;;;;;;;;5.00;3.75;;;;;20.04;41.60;101314.75;5061039;28;45454;-65
2022/06/01 09:28:54;;;;;;;;;6.25;4.75;;;;;20.12;41.58;101314.28;5060798;28;45377;-65
2022/06/01 09:31:39;;;;;;;;;4.00;3.00;;;;;20.20;42.08;101309.41;5061157;28;45422;-64
2022/06/01 09:34:23;;;;;;;;;5.50;5.00;;;;;20.47;41.94;101310.44;5060769;28;45364;-67
2022/06/01 09:36:54;;;;;;;;;4.50;4.50;;;;;20.69;41.26;101301.25;5060304;28;45493;-64
2022/06/01 09:39:20;;;;;;;;;3.00;3.00;;;;;20.74;41.19;101313.22;5060804;28;45513;-65
2022/06/01 09:41:46;;;;;;;;;3.50;3.25;;;;;20.82;41.15;101310.97;5060382;28;45621;-69
2022/06/01 09:44:18;;;;;;;;;5.50;4.00;;;;;21.05;40.33;101312.19;5060525;28;45477;-68
2022/06/01 09:46:54;;;;;;;;;6.50;3.75;;;;;21.16;40.51;101309.72;5050160;28;45709;-62
2022/06/01 09:49:27;;;;;;;;;5.25;3.50;;;;;21.38;40.74;101308.38;5059456;28;45435;-66
2022/06/01 09:52:07;;;;;;;;;3.75;3.50;;;;;21.67;38.65;101304.75;5059959;28;45230;-65
2022/06/01 09:54:37;;;;;;;;;2.75;2.75;;;;;21.72;37.97;101307.09;5060803;28;45509;-63
2022/06/01 09:57:28;;;;;;;;;7.00;4.00;;;;;21.74;38.91;101305.19;5059993;28;45438;-64
2022/06/01 10:08:24;;;;;;;;;5.00;3.75;;;;;22.30;37.64;101300.59;5057938;28;45309;-61
2022/06/01 10:11:11;;;;;;;;;7.00;4.00;;;;;22.29;36.89;101299.75;5059914;28;45598;-61
2022/06/01 10:13:49;;;;;;;;;3.75;3.50;;;;;22.20;36.24;101297.72;5059043;28;45729;-61
2022/06/01 10:16:41;;;;;;;;;4.00;3.00;;;;;21.89;36.86;101295.41;5058260;28;45388;-60
2022/06/01 10:19:11;;;;;;;;;3.50;2.00;;;;;21.63;36.88;101299.75;5058865;28;45513;-63
2022/06/01 10:21:52;;;;;;;;;3.75;3.00;;;;;21.35;37.38;101296.22;5049154;28;45565;-62
2022/06/01 10:24:26;;;;;;;;;3.75;3.75;;;;;21.19;37.29;101298.09;5058686;28;45357;-66
2022/06/01 10:26:55;;;;;;;;;4.00;2.50;;;;;20.99;37.64;101294.06;5059400;28;45441;-64
2022/06/01 10:29:30;;;;;;;;;4.25;4.00;;;;;21.08;37.85;101284.72;5059515;28;45439;-63
2022/06/01 10:32:03;;;;;;;;;2.00;2.00;;;;;21.36;38.07;101284.69;5059235;28;45384;-65
2022/06/01 10:34:40;;;;;;;;;4.00;4.00;;;;;21.78;37.51;101285.50;5059153;28;45453;-63
2022/06/01 10:37:23;;;;;;;;;2.25;2.25;;;;;21.94;36.05;101280.06;5059401;28;45468;-63
2022/06/01 10:40:04;;;;;;;;;3.25;2.25;;;;;22.11;36.31;101283.31;5059218;28;46281;-64
2022/06/01 10:45:29;;;;;;;;;2.00;2.00;;;;;22.34;35.35;101286.19;5058366;28;45484;-68
2022/06/01 10:48:12;;;;;;;;;2.75;1.75;;;;;22.26;35.63;101284.09;5059228;28;45291;-68
2022/06/01 10:50:45;;;;;;;;;3.00;3.00;;;;;22.03;36.19;101287.41;5057787;28;45744;-72
2022/06/01 10:53:33;;;;;;;;;4.00;4.00;;;;;21.79;36.62;101284.56;5058890;28;45642;-76
2022/06/01 10:55:59;;;;;;;;;6.75;4.75;;;;;21.77;36.64;101283.81;5057912;28;45427;-74
2022/06/01 10:58:26;;;;;;;;;2.50;2.50;;;;;21.79;36.66;101284.56;5055541;28;45286;-64
2022/06/01 11:01:15;;;;;;;;;4.25;4.00;;;;;21.89;36.61;101277.72;5058983;28;46490;-65
2022/06/01 11:03:40;;;;;;;;;3.00;2.50;;;;;21.98;35.76;101282.38;5059196;28;45363;-65
2022/06/01 11:06:11;;;;;;;;;2.67;2.00;;;;;21.90;35.51;101273.28;5059098;28;45248;-67
2022/06/01 11:09:04;;;;;;;;;3.00;2.00;;;;;21.83;35.25;101276.34;5059219;28;45291;-66
2022/06/01 11:11:44;;;;;;;;;2.75;2.75;;;;;21.73;35.78;101261.16;5056875;28;45382;-65
2022/06/01 11:14:35;;;;;;;;;3.00;3.00;;;;;21.73;36.36;101269.94;5073444;28;48129;-65
2022/06/01 11:17:20;;;;;;;;;3.75;3.75;;;;;21.76;36.24;101264.44;5037823;28;45562;-64
2022/06/01 11:20:00;;;;;;;;;3.00;3.00;;;;;21.74;36.21;101265.50;5058636;28;45277;-63
2022/06/01 11:22:44;;;;;;;;;3.50;3.00;;;;;21.87;36.54;101263.75;5059115;28;45382;-63
2022/06/01 11:25:32;;;;;;;;;9.75;8.00;;;;;21.98;35.84;101261.22;5058711;28;46119;-67
2022/06/01 11:28:27;;;;;;;;;5.50;3.00;;;;;22.09;35.46;101265.84;5045102;28;45756;-65
2022/06/01 11:31:05;;;;;;;;;4.75;3.00;;;;;22.22;35.84;101258.75;5053800;28;45379;-70
2022/06/01 11:34:02;;;;;;;;;4.00;2.00;;;;;22.30;34.33;101261.72;5058249;28;45321;-63
2022/06/01 11:36:39;;;;;;;;;3.00;3.00;;;;;22.29;35.35;101252.09;5058559;28;46666;-61
2022/06/01 11:39:11;;;;;;;;;3.00;3.00;;;;;22.14;34.54;101250.47;5057343;28;45338;-59
2022/06/01 11:41:40;;;;;;;;;4.00;2.00;;;;;21.94;35.13;101256.25;5056973;28;45354;-59
2022/06/01 11:44:14;;;;;;;;;2.50;2.25;;;;;21.80;35.21;101252.69;5058360;28;45330;-60
2022/06/01 11:46:53;;;;;;;;;2.00;2.00;;;;;21.86;35.13;101244.38;5058177;28;45360;-62
2022/06/01 11:49:25;;;;;;;;;3.00;2.00;;;;;21.96;35.20;101247.25;5058661;28;45706;-62
2022/06/01 11:51:50;;;;;;;;;4.00;4.00;;;;;21.99;34.87;101247.03;5058306;28;45498;-62
2022/06/01 11:54:33;;;;;;;;;3.00;3.00;;;;;21.90;35.07;101241.53;5058236;28;45325;-62
2022/06/01 11:57:36;;;;;;;;;3.75;3.75;;;;;21.84;35.27;101241.00;5052506;28;45335;-63
2022/06/01 12:00:16;;;;;;;;;3.25;3.00;;;;;21.75;35.15;101240.72;5057811;28;45402;-63
2022/06/01 12:02:46;;;;;;;;;6.00;3.25;;;;;21.77;35.14;101241.47;5058637;28;45503;-60
2022/06/01 12:05:23;;;;;;;;;4.00;3.00;;;;;21.82;34.33;101245.53;5058370;28;45608;-60
2022/06/01 12:08:03;;;;;;;;;3.25;2.25;;;;;21.91;34.00;101243.22;5058302;28;46355;-61